sensor_id;sensor_type;location;lat;lon;timestamp;temperature;humidity
12811;DHT22;6470;47.654;7.896;2022-10-18T00:01:49;15.90;99.90
12811;DHT22;6470;47.654;7.896;2022-10-18T00:04:15;16.20;99.90
12811;DHT22;6470;47.654;7.896;2022-10-18T00:06:40;15.40;99.90
12811;DHT22;6470;47.654;7.896;2022-10-18T00:09:06;15.90;99.90
12811;DHT22;6470;47.654;7.896;2022-10-18T00:11:32;11.20;99.90
12811;DHT22;6470;47.654;7.896;2022-10-18T00:13:58;11.30;99.90
12811;DHT22;6470;47.654;7.896;2022-10-18T00:18:49;15.70;99.90
12811;DHT22;6470;47.654;7.896;2022-10-18T00:21:20;15.00;99.90
12811;DHT22;6470;47.654;7.896;2022-10-18T00:23:47;13.80;99.90
12811;DHT22;6470;47.654;7.896;2022-10-18T00:26:22;15.40;99.90
12811;DHT22;6470;47.654;7.896;2022-10-18T00:28:57;15.20;99.90
12811;DHT22;6470;47.654;7.896;2022-10-18T00:31:31;15.30;99.90
12811;DHT22;6470;47.654;7.896;2022-10-18T00:34:00;15.60;99.90
12811;DHT22;6470;47.654;7.896;2022-10-18T00:36:28;15.00;99.90
12811;DHT22;6470;47.654;7.896;2022-10-18T00:41:23;15.40;99.90
12811;DHT22;6470;47.654;7.896;2022-10-18T00:46:42;15.90;99.90
12811;DHT22;6470;47.654;7.896;2022-10-18T00:49:11;15.30;99.90
12811;DHT22;6470;47.654;7.896;2022-10-18T00:51:47;15.80;99.90
12811;DHT22;6470;47.654;7.896;2022-10-18T00:54:15;15.80;99.90
12811;DHT22;6470;47.654;7.896;2022-10-18T00:59:10;11.20;99.90
12811;DHT22;6470;47.654;7.896;2022-10-18T01:01:36;15.70;99.90
12811;DHT22;6470;47.654;7.896;2022-10-18T01:04:02;15.70;99.90
12811;DHT22;6470;47.654;7.896;2022-10-18T01:06:29;15.70;99.90
12811;DHT22;6470;47.654;7.896;2022-10-18T01:09:15;14.00;99.90
12811;DHT22;6470;47.654;7.896;2022-10-18T01:15:17;11.30;99.90
12811;DHT22;6470;47.654;7.896;2022-10-18T01:23:16;15.00;99.90
12811;DHT22;6470;47.654;7.896;2022-10-18T01:31:15;15.50;99.90
12811;DHT22;6470;47.654;7.896;2022-10-18T01:34:02;15.80;99.90
12811;DHT22;6470;47.654;7.896;2022-10-18T01:36:31;15.60;99.90
12811;DHT22;6470;47.654;7.896;2022-10-18T01:39:00;15.70;99.90
12811;DHT22;6470;47.654;7.896;2022-10-18T01:41:27;14.30;99.90
12811;DHT22;6470;47.654;7.896;2022-10-18T01:43:58;15.20;99.90
12811;DHT22;6470;47.654;7.896;2022-10-18T01:46:25;15.70;99.90
12811;DHT22;6470;47.654;7.896;2022-10-18T01:48:53;15.30;99.90
12811;DHT22;6470;47.654;7.896;2022-10-18T01:51:28;16.20;99.90
12811;DHT22;6470;47.654;7.896;2022-10-18T01:53:54;15.80;99.90
12811;DHT22;6470;47.654;7.896;2022-10-18T01:59:27;15.40;99.90
12811;DHT22;6470;47.654;7.896;2022-10-18T02:05:26;14.00;99.90
12811;DHT22;6470;47.654;7.896;2022-10-18T02:10:42;15.30;99.90
12811;DHT22;6470;47.654;7.896;2022-10-18T02:13:10;11.20;99.90
12811;DHT22;6470;47.654;7.896;2022-10-18T02:15:39;14.00;99.90
12811;DHT22;6470;47.654;7.896;2022-10-18T02:18:11;16.10;99.90
12811;DHT22;6470;47.654;7.896;2022-10-18T02:20:38;15.20;99.90
12811;DHT22;6470;47.654;7.896;2022-10-18T02:23:06;15.40;99.90
12811;DHT22;6470;47.654;7.896;2022-10-18T02:25:33;15.30;99.90
12811;DHT22;6470;47.654;7.896;2022-10-18T02:28:01;13.80;99.90
12811;DHT22;6470;47.654;7.896;2022-10-18T02:30:32;16.00;99.90
12811;DHT22;6470;47.654;7.896;2022-10-18T02:33:03;15.90;99.90
12811;DHT22;6470;47.654;7.896;2022-10-18T02:35:40;15.50;99.90
12811;DHT22;6470;47.654;7.896;2022-10-18T02:38:08;15.20;99.90
12811;DHT22;6470;47.654;7.896;2022-10-18T02:43:04;16.00;99.90
12811;DHT22;6470;47.654;7.896;2022-10-18T02:45:30;15.30;99.90
12811;DHT22;6470;47.654;7.896;2022-10-18T02:47:56;15.50;99.90
12811;DHT22;6470;47.654;7.896;2022-10-18T02:52:48;16.00;99.90
12811;DHT22;6470;47.654;7.896;2022-10-18T02:55:14;14.90;99.90
12811;DHT22;6470;47.654;7.896;2022-10-18T02:57:40;15.80;99.90
12811;DHT22;6470;47.654;7.896;2022-10-18T03:00:06;15.20;99.90
12811;DHT22;6470;47.654;7.896;2022-10-18T03:02:32;15.50;99.90
12811;DHT22;6470;47.654;7.896;2022-10-18T03:04:58;14.80;99.90
12811;DHT22;6470;47.654;7.896;2022-10-18T03:07:23;15.40;99.90
12811;DHT22;6470;47.654;7.896;2022-10-18T03:09:49;15.70;99.90
12811;DHT22;6470;47.654;7.896;2022-10-18T03:12:15;10.70;99.90
12811;DHT22;6470;47.654;7.896;2022-10-18T03:14:41;15.80;99.90
12811;DHT22;6470;47.654;7.896;2022-10-18T03:19:33;15.20;99.90
12811;DHT22;6470;47.654;7.896;2022-10-18T03:21:58;15.70;99.90
12811;DHT22;6470;47.654;7.896;2022-10-18T03:24:24;14.70;99.90
12811;DHT22;6470;47.654;7.896;2022-10-18T03:26:50;15.60;99.90
12811;DHT22;6470;47.654;7.896;2022-10-18T03:29:16;15.30;99.90
12811;DHT22;6470;47.654;7.896;2022-10-18T03:31:42;15.30;99.90
12811;DHT22;6470;47.654;7.896;2022-10-18T03:34:08;15.20;99.90
12811;DHT22;6470;47.654;7.896;2022-10-18T03:36:33;12.70;99.90
12811;DHT22;6470;47.654;7.896;2022-10-18T03:38:59;15.50;99.90
12811;DHT22;6470;47.654;7.896;2022-10-18T03:41:25;12.90;99.90
12811;DHT22;6470;47.654;7.896;2022-10-18T03:48:43;15.50;99.90
12811;DHT22;6470;47.654;7.896;2022-10-18T03:51:09;15.80;99.90
12811;DHT22;6470;47.654;7.896;2022-10-18T03:53:34;12.80;99.90
12811;DHT22;6470;47.654;7.896;2022-10-18T03:56:01;12.70;99.90
12811;DHT22;6470;47.654;7.896;2022-10-18T03:58:27;15.10;99.90
12811;DHT22;6470;47.654;7.896;2022-10-18T04:00:53;12.50;99.90
12811;DHT22;6470;47.654;7.896;2022-10-18T04:03:20;12.40;99.90
12811;DHT22;6470;47.654;7.896;2022-10-18T04:05:47;14.80;99.90
12811;DHT22;6470;47.654;7.896;2022-10-18T04:08:13;15.50;99.90
12811;DHT22;6470;47.654;7.896;2022-10-18T04:10:40;12.40;99.90
12811;DHT22;6470;47.654;7.896;2022-10-18T04:13:06;12.30;99.90
12811;DHT22;6470;47.654;7.896;2022-10-18T04:15:32;14.90;99.90
12811;DHT22;6470;47.654;7.896;2022-10-18T04:17:58;15.30;99.90
12811;DHT22;6470;47.654;7.896;2022-10-18T04:20:24;15.20;99.90
12811;DHT22;6470;47.654;7.896;2022-10-18T04:22:50;12.50;99.90
12811;DHT22;6470;47.654;7.896;2022-10-18T04:25:17;15.50;99.90
12811;DHT22;6470;47.654;7.896;2022-10-18T04:27:43;15.30;99.90
12811;DHT22;6470;47.654;7.896;2022-10-18T04:30:09;15.70;99.90
12811;DHT22;6470;47.654;7.896;2022-10-18T04:32:35;15.30;99.90
12811;DHT22;6470;47.654;7.896;2022-10-18T04:35:01;12.80;99.90
12811;DHT22;6470;47.654;7.896;2022-10-18T04:37:27;15.50;99.90
12811;DHT22;6470;47.654;7.896;2022-10-18T04:39:53;15.30;99.90
12811;DHT22;6470;47.654;7.896;2022-10-18T04:42:19;15.80;99.90
12811;DHT22;6470;47.654;7.896;2022-10-18T04:44:44;15.70;99.90
12811;DHT22;6470;47.654;7.896;2022-10-18T04:47:10;16.00;99.90
12811;DHT22;6470;47.654;7.896;2022-10-18T04:49:36;15.50;99.90
12811;DHT22;6470;47.654;7.896;2022-10-18T04:52:02;15.40;99.90
12811;DHT22;6470;47.654;7.896;2022-10-18T04:54:28;10.00;99.90
12811;DHT22;6470;47.654;7.896;2022-10-18T04:56:54;15.70;99.90
12811;DHT22;6470;47.654;7.896;2022-10-18T04:59:19;15.10;99.90
12811;DHT22;6470;47.654;7.896;2022-10-18T05:04:11;12.40;99.90
12811;DHT22;6470;47.654;7.896;2022-10-18T05:06:37;15.70;99.90
12811;DHT22;6470;47.654;7.896;2022-10-18T05:09:03;15.30;99.90
12811;DHT22;6470;47.654;7.896;2022-10-18T05:11:29;10.20;99.90
12811;DHT22;6470;47.654;7.896;2022-10-18T05:13:54;9.80;99.90
12811;DHT22;6470;47.654;7.896;2022-10-18T05:16:20;15.20;99.90
12811;DHT22;6470;47.654;7.896;2022-10-18T05:18:46;15.50;99.90
12811;DHT22;6470;47.654;7.896;2022-10-18T05:21:12;15.20;99.90
12811;DHT22;6470;47.654;7.896;2022-10-18T05:23:37;15.30;99.90
12811;DHT22;6470;47.654;7.896;2022-10-18T05:26:05;10.40;99.90
12811;DHT22;6470;47.654;7.896;2022-10-18T05:28:32;12.10;99.90
12811;DHT22;6470;47.654;7.896;2022-10-18T05:31:02;12.10;99.90
12811;DHT22;6470;47.654;7.896;2022-10-18T05:33:28;15.50;99.90
12811;DHT22;6470;47.654;7.896;2022-10-18T05:35:54;12.20;99.90
12811;DHT22;6470;47.654;7.896;2022-10-18T05:38:20;15.10;99.90
12811;DHT22;6470;47.654;7.896;2022-10-18T05:40:46;15.10;99.90
12811;DHT22;6470;47.654;7.896;2022-10-18T05:43:11;15.90;99.90
12811;DHT22;6470;47.654;7.896;2022-10-18T05:45:37;14.60;99.90
12811;DHT22;6470;47.654;7.896;2022-10-18T05:48:03;14.80;99.90
12811;DHT22;6470;47.654;7.896;2022-10-18T05:50:30;15.00;99.90
12811;DHT22;6470;47.654;7.896;2022-10-18T05:52:56;14.80;99.90
12811;DHT22;6470;47.654;7.896;2022-10-18T05:55:22;15.50;99.90
12811;DHT22;6470;47.654;7.896;2022-10-18T05:57:49;14.80;99.90
12811;DHT22;6470;47.654;7.896;2022-10-18T06:00:15;15.30;99.90
12811;DHT22;6470;47.654;7.896;2022-10-18T06:02:40;15.20;99.90
12811;DHT22;6470;47.654;7.896;2022-10-18T06:05:06;15.00;99.90
12811;DHT22;6470;47.654;7.896;2022-10-18T06:07:32;15.30;99.90
12811;DHT22;6470;47.654;7.896;2022-10-18T06:12:24;15.50;99.90
12811;DHT22;6470;47.654;7.896;2022-10-18T06:14:49;15.00;99.90
12811;DHT22;6470;47.654;7.896;2022-10-18T06:17:15;15.50;99.90
12811;DHT22;6470;47.654;7.896;2022-10-18T06:19:41;15.40;99.90
12811;DHT22;6470;47.654;7.896;2022-10-18T06:22:09;15.50;99.90
12811;DHT22;6470;47.654;7.896;2022-10-18T06:24:35;15.20;99.90
12811;DHT22;6470;47.654;7.896;2022-10-18T06:27:00;15.00;99.90
12811;DHT22;6470;47.654;7.896;2022-10-18T06:29:32;15.10;99.90
12811;DHT22;6470;47.654;7.896;2022-10-18T06:36:50;15.50;99.90
12811;DHT22;6470;47.654;7.896;2022-10-18T06:39:15;14.80;99.90
12811;DHT22;6470;47.654;7.896;2022-10-18T06:41:41;15.10;99.90
12811;DHT22;6470;47.654;7.896;2022-10-18T06:44:08;13.10;99.90
12811;DHT22;6470;47.654;7.896;2022-10-18T06:46:41;13.20;99.90
12811;DHT22;6470;47.654;7.896;2022-10-18T06:49:08;15.10;99.90
12811;DHT22;6470;47.654;7.896;2022-10-18T06:51:34;13.30;99.90
12811;DHT22;6470;47.654;7.896;2022-10-18T06:53:59;15.10;99.90
12811;DHT22;6470;47.654;7.896;2022-10-18T06:56:25;14.90;99.90
12811;DHT22;6470;47.654;7.896;2022-10-18T06:58:51;15.00;99.90
12811;DHT22;6470;47.654;7.896;2022-10-18T07:01:18;15.90;99.90
12811;DHT22;6470;47.654;7.896;2022-10-18T07:03:45;15.60;99.90
12811;DHT22;6470;47.654;7.896;2022-10-18T07:06:13;13.60;99.90
12811;DHT22;6470;47.654;7.896;2022-10-18T07:08:39;15.40;99.90
12811;DHT22;6470;47.654;7.896;2022-10-18T07:11:07;14.00;99.90
12811;DHT22;6470;47.654;7.896;2022-10-18T07:13:33;14.30;99.90
12811;DHT22;6470;47.654;7.896;2022-10-18T07:16:13;16.00;99.90
12811;DHT22;6470;47.654;7.896;2022-10-18T07:18:41;15.90;99.90
12811;DHT22;6470;47.654;7.896;2022-10-18T07:21:10;15.80;99.90
12811;DHT22;6470;47.654;7.896;2022-10-18T07:23:37;15.70;99.90
12811;DHT22;6470;47.654;7.896;2022-10-18T07:26:20;15.70;99.90
12811;DHT22;6470;47.654;7.896;2022-10-18T07:28:53;15.40;99.90
12811;DHT22;6470;47.654;7.896;2022-10-18T07:31:20;15.80;99.90
12811;DHT22;6470;47.654;7.896;2022-10-18T07:33:47;16.00;99.90
12811;DHT22;6470;47.654;7.896;2022-10-18T07:36:12;15.90;99.90
12811;DHT22;6470;47.654;7.896;2022-10-18T07:38:40;16.20;99.90
12811;DHT22;6470;47.654;7.896;2022-10-18T07:41:06;16.40;99.90
12811;DHT22;6470;47.654;7.896;2022-10-18T07:46:01;16.80;99.90
12811;DHT22;6470;47.654;7.896;2022-10-18T07:48:27;16.90;99.90
12811;DHT22;6470;47.654;7.896;2022-10-18T07:50:53;17.50;99.90
12811;DHT22;6470;47.654;7.896;2022-10-18T07:53:22;16.30;99.90
12811;DHT22;6470;47.654;7.896;2022-10-18T07:55:47;17.10;99.90
12811;DHT22;6470;47.654;7.896;2022-10-18T07:58:13;17.60;99.90
12811;DHT22;6470;47.654;7.896;2022-10-18T08:00:39;18.80;99.90
12811;DHT22;6470;47.654;7.896;2022-10-18T08:03:04;17.40;99.90
12811;DHT22;6470;47.654;7.896;2022-10-18T08:05:30;15.70;99.90
12811;DHT22;6470;47.654;7.896;2022-10-18T08:07:56;18.50;99.90
12811;DHT22;6470;47.654;7.896;2022-10-18T08:10:22;17.80;99.90
12811;DHT22;6470;47.654;7.896;2022-10-18T08:12:52;19.10;99.90
12811;DHT22;6470;47.654;7.896;2022-10-18T08:17:45;19.00;99.90
12811;DHT22;6470;47.654;7.896;2022-10-18T08:20:11;19.20;99.90
12811;DHT22;6470;47.654;7.896;2022-10-18T08:22:36;18.80;99.90
12811;DHT22;6470;47.654;7.896;2022-10-18T08:25:03;18.90;99.90
12811;DHT22;6470;47.654;7.896;2022-10-18T08:29:55;18.80;99.90
12811;DHT22;6470;47.654;7.896;2022-10-18T08:34:46;19.00;99.90
12811;DHT22;6470;47.654;7.896;2022-10-18T08:37:12;19.50;99.90
12811;DHT22;6470;47.654;7.896;2022-10-18T08:39:38;19.10;99.90
12811;DHT22;6470;47.654;7.896;2022-10-18T08:42:21;19.30;99.90
12811;DHT22;6470;47.654;7.896;2022-10-18T08:44:51;19.30;99.90
12811;DHT22;6470;47.654;7.896;2022-10-18T08:47:36;19.00;99.90
12811;DHT22;6470;47.654;7.896;2022-10-18T08:52:52;19.80;99.90
12811;DHT22;6470;47.654;7.896;2022-10-18T08:55:40;19.90;99.90
12811;DHT22;6470;47.654;7.896;2022-10-18T08:58:28;20.20;99.90
12811;DHT22;6470;47.654;7.896;2022-10-18T09:04:20;20.50;99.90
12811;DHT22;6470;47.654;7.896;2022-10-18T09:20:44;21.50;99.90
12811;DHT22;6470;47.654;7.896;2022-10-18T09:23:25;20.80;99.90
12811;DHT22;6470;47.654;7.896;2022-10-18T09:26:13;21.20;99.90
12811;DHT22;6470;47.654;7.896;2022-10-18T09:34:54;21.60;99.90
12811;DHT22;6470;47.654;7.896;2022-10-18T09:37:22;22.00;99.90
12811;DHT22;6470;47.654;7.896;2022-10-18T09:39:51;22.40;99.90
12811;DHT22;6470;47.654;7.896;2022-10-18T09:42:35;22.40;99.90
12811;DHT22;6470;47.654;7.896;2022-10-18T09:45:12;19.40;99.90
12811;DHT22;6470;47.654;7.896;2022-10-18T09:47:49;22.10;99.90
12811;DHT22;6470;47.654;7.896;2022-10-18T09:50:26;22.40;99.90
12811;DHT22;6470;47.654;7.896;2022-10-18T09:56:07;22.40;99.90
12811;DHT22;6470;47.654;7.896;2022-10-18T09:58:46;22.80;99.90
12811;DHT22;6470;47.654;7.896;2022-10-18T10:01:15;23.00;99.90
12811;DHT22;6470;47.654;7.896;2022-10-18T10:03:43;23.80;99.90
12811;DHT22;6470;47.654;7.896;2022-10-18T10:08:46;23.00;99.90
12811;DHT22;6470;47.654;7.896;2022-10-18T10:11:32;22.70;99.90
12811;DHT22;6470;47.654;7.896;2022-10-18T10:19:34;22.60;99.90
12811;DHT22;6470;47.654;7.896;2022-10-18T10:22:02;23.20;99.90
12811;DHT22;6470;47.654;7.896;2022-10-18T10:24:49;23.70;99.90
12811;DHT22;6470;47.654;7.896;2022-10-18T10:27:20;23.30;99.90
12811;DHT22;6470;47.654;7.896;2022-10-18T10:29:47;23.20;99.90
12811;DHT22;6470;47.654;7.896;2022-10-18T10:32:15;23.20;99.90
12811;DHT22;6470;47.654;7.896;2022-10-18T10:34:41;22.80;99.90
12811;DHT22;6470;47.654;7.896;2022-10-18T10:40:18;22.60;99.90
12811;DHT22;6470;47.654;7.896;2022-10-18T10:45:21;23.30;99.90
12811;DHT22;6470;47.654;7.896;2022-10-18T10:47:48;23.50;99.90
12811;DHT22;6470;47.654;7.896;2022-10-18T10:50:23;23.70;99.90
12811;DHT22;6470;47.654;7.896;2022-10-18T10:52:49;23.60;99.90
12811;DHT22;6470;47.654;7.896;2022-10-18T10:55:34;23.40;99.90
12811;DHT22;6470;47.654;7.896;2022-10-18T10:58:00;23.00;99.90
12811;DHT22;6470;47.654;7.896;2022-10-18T11:00:44;23.40;99.90
12811;DHT22;6470;47.654;7.896;2022-10-18T11:03:15;24.10;99.90
12811;DHT22;6470;47.654;7.896;2022-10-18T11:05:48;23.20;99.90
12811;DHT22;6470;47.654;7.896;2022-10-18T11:08:21;23.30;99.90
12811;DHT22;6470;47.654;7.896;2022-10-18T11:18:55;24.10;99.90
12811;DHT22;6470;47.654;7.896;2022-10-18T11:21:24;23.70;99.90
12811;DHT22;6470;47.654;7.896;2022-10-18T11:23:50;23.90;99.90
12811;DHT22;6470;47.654;7.896;2022-10-18T11:26:37;23.70;99.90
12811;DHT22;6470;47.654;7.896;2022-10-18T11:31:54;24.60;99.90
12811;DHT22;6470;47.654;7.896;2022-10-18T11:46:02;23.70;99.90
12811;DHT22;6470;47.654;7.896;2022-10-18T11:48:39;23.70;99.90
12811;DHT22;6470;47.654;7.896;2022-10-18T11:59:36;24.10;99.90
12811;DHT22;6470;47.654;7.896;2022-10-18T12:04:42;22.80;99.90
12811;DHT22;6470;47.654;7.896;2022-10-18T12:07:11;23.70;99.90
12811;DHT22;6470;47.654;7.896;2022-10-18T12:09:42;23.90;99.90
12811;DHT22;6470;47.654;7.896;2022-10-18T12:12:17;23.90;99.90
12811;DHT22;6470;47.654;7.896;2022-10-18T12:19:48;23.60;99.90
12811;DHT22;6470;47.654;7.896;2022-10-18T12:22:33;23.90;99.90
12811;DHT22;6470;47.654;7.896;2022-10-18T12:24:59;24.00;99.90
12811;DHT22;6470;47.654;7.896;2022-10-18T12:27:40;23.40;99.90
12811;DHT22;6470;47.654;7.896;2022-10-18T12:30:19;24.00;99.90
12811;DHT22;6470;47.654;7.896;2022-10-18T12:32:45;24.00;99.90
12811;DHT22;6470;47.654;7.896;2022-10-18T12:35:15;24.60;99.90
12811;DHT22;6470;47.654;7.896;2022-10-18T12:40:56;24.10;99.90
12811;DHT22;6470;47.654;7.896;2022-10-18T12:43:28;23.80;99.90
12811;DHT22;6470;47.654;7.896;2022-10-18T12:46:03;23.80;99.90
12811;DHT22;6470;47.654;7.896;2022-10-18T12:51:02;23.60;99.90
12811;DHT22;6470;47.654;7.896;2022-10-18T12:53:28;23.90;99.90
12811;DHT22;6470;47.654;7.896;2022-10-18T12:55:54;24.50;99.90
12811;DHT22;6470;47.654;7.896;2022-10-18T12:58:40;24.00;99.90
12811;DHT22;6470;47.654;7.896;2022-10-18T13:01:07;24.00;99.90
12811;DHT22;6470;47.654;7.896;2022-10-18T13:03:41;24.30;99.90
12811;DHT22;6470;47.654;7.896;2022-10-18T13:06:14;24.50;99.90
12811;DHT22;6470;47.654;7.896;2022-10-18T13:08:41;24.20;99.90
12811;DHT22;6470;47.654;7.896;2022-10-18T13:16:36;25.00;99.90
12811;DHT22;6470;47.654;7.896;2022-10-18T13:24:34;24.20;99.90
12811;DHT22;6470;47.654;7.896;2022-10-18T13:35:43;24.30;99.90
12811;DHT22;6470;47.654;7.896;2022-10-18T13:41:18;24.20;99.90
12811;DHT22;6470;47.654;7.896;2022-10-18T13:49:29;24.40;99.90
12811;DHT22;6470;47.654;7.896;2022-10-18T13:57:34;24.40;99.90
12811;DHT22;6470;47.654;7.896;2022-10-18T14:00:18;21.10;99.90
12811;DHT22;6470;47.654;7.896;2022-10-18T14:03:16;24.10;99.90
12811;DHT22;6470;47.654;7.896;2022-10-18T14:05:49;24.80;99.90
12811;DHT22;6470;47.654;7.896;2022-10-18T14:08:26;24.00;99.90
12811;DHT22;6470;47.654;7.896;2022-10-18T14:19:12;24.60;99.90
12811;DHT22;6470;47.654;7.896;2022-10-18T14:21:40;20.70;99.90
12811;DHT22;6470;47.654;7.896;2022-10-18T14:24:20;25.00;99.90
12811;DHT22;6470;47.654;7.896;2022-10-18T14:26:47;24.10;99.90
12811;DHT22;6470;47.654;7.896;2022-10-18T14:29:17;25.00;99.90
12811;DHT22;6470;47.654;7.896;2022-10-18T14:31:52;24.00;99.90
12811;DHT22;6470;47.654;7.896;2022-10-18T14:34:18;21.10;99.90
12811;DHT22;6470;47.654;7.896;2022-10-18T14:36:47;21.10;99.90
12811;DHT22;6470;47.654;7.896;2022-10-18T14:39:31;20.80;99.90
12811;DHT22;6470;47.654;7.896;2022-10-18T14:41:57;23.70;99.90
12811;DHT22;6470;47.654;7.896;2022-10-18T14:44:30;20.70;99.90
12811;DHT22;6470;47.654;7.896;2022-10-18T14:47:15;24.20;99.90
12811;DHT22;6470;47.654;7.896;2022-10-18T14:49:45;23.70;99.90
12811;DHT22;6470;47.654;7.896;2022-10-18T14:52:29;23.60;99.90
12811;DHT22;6470;47.654;7.896;2022-10-18T14:54:56;23.90;99.90
12811;DHT22;6470;47.654;7.896;2022-10-18T14:57:32;23.60;99.90
12811;DHT22;6470;47.654;7.896;2022-10-18T15:00:13;23.60;99.90
12811;DHT22;6470;47.654;7.896;2022-10-18T15:02:41;22.90;99.90
12811;DHT22;6470;47.654;7.896;2022-10-18T15:05:18;23.40;99.90
12811;DHT22;6470;47.654;7.896;2022-10-18T15:07:45;22.60;99.90
12811;DHT22;6470;47.654;7.896;2022-10-18T15:10:20;23.60;99.90
12811;DHT22;6470;47.654;7.896;2022-10-18T15:12:47;20.50;99.90
12811;DHT22;6470;47.654;7.896;2022-10-18T15:15:21;23.20;99.90
12811;DHT22;6470;47.654;7.896;2022-10-18T15:17:48;23.90;99.90
12811;DHT22;6470;47.654;7.896;2022-10-18T15:20:26;23.00;99.90
12811;DHT22;6470;47.654;7.896;2022-10-18T15:22:53;23.00;99.90
12811;DHT22;6470;47.654;7.896;2022-10-18T15:25:23;22.70;99.90
12811;DHT22;6470;47.654;7.896;2022-10-18T15:27:55;23.40;99.90
12811;DHT22;6470;47.654;7.896;2022-10-18T15:30:28;23.00;99.90
12811;DHT22;6470;47.654;7.896;2022-10-18T15:33:01;22.60;99.90
12811;DHT22;6470;47.654;7.896;2022-10-18T15:35:35;19.80;99.90
12811;DHT22;6470;47.654;7.896;2022-10-18T15:38:14;22.80;99.90
12811;DHT22;6470;47.654;7.896;2022-10-18T15:40:41;23.00;99.90
12811;DHT22;6470;47.654;7.896;2022-10-18T15:45:52;22.90;99.90
12811;DHT22;6470;47.654;7.896;2022-10-18T15:48:29;19.20;99.90
12811;DHT22;6470;47.654;7.896;2022-10-18T15:50:58;22.00;99.90
12811;DHT22;6470;47.654;7.896;2022-10-18T15:58:41;21.20;99.90
12811;DHT22;6470;47.654;7.896;2022-10-18T16:01:17;21.20;99.90
12811;DHT22;6470;47.654;7.896;2022-10-18T16:03:44;20.20;99.90
12811;DHT22;6470;47.654;7.896;2022-10-18T16:06:12;20.60;99.90
12811;DHT22;6470;47.654;7.896;2022-10-18T16:08:40;20.50;99.90
12811;DHT22;6470;47.654;7.896;2022-10-18T16:11:24;20.80;99.90
12811;DHT22;6470;47.654;7.896;2022-10-18T16:13:51;20.90;99.90
12811;DHT22;6470;47.654;7.896;2022-10-18T16:16:23;19.60;99.90
12811;DHT22;6470;47.654;7.896;2022-10-18T16:18:50;20.30;99.90
12811;DHT22;6470;47.654;7.896;2022-10-18T16:21:21;20.30;99.90
12811;DHT22;6470;47.654;7.896;2022-10-18T16:23:48;20.00;99.90
12811;DHT22;6470;47.654;7.896;2022-10-18T16:26:14;20.00;99.90
12811;DHT22;6470;47.654;7.896;2022-10-18T16:28:41;19.70;99.90
12811;DHT22;6470;47.654;7.896;2022-10-18T16:31:08;18.80;99.90
12811;DHT22;6470;47.654;7.896;2022-10-18T16:36:01;18.70;99.90
12811;DHT22;6470;47.654;7.896;2022-10-18T16:38:36;15.70;99.90
12811;DHT22;6470;47.654;7.896;2022-10-18T16:41:03;18.70;99.90
12811;DHT22;6470;47.654;7.896;2022-10-18T16:43:30;19.20;99.90
12811;DHT22;6470;47.654;7.896;2022-10-18T16:45:56;18.60;99.90
12811;DHT22;6470;47.654;7.896;2022-10-18T16:48:23;18.90;99.90
12811;DHT22;6470;47.654;7.896;2022-10-18T16:50:50;18.80;99.90
12811;DHT22;6470;47.654;7.896;2022-10-18T16:53:15;18.10;99.90
12811;DHT22;6470;47.654;7.896;2022-10-18T16:55:42;14.80;99.90
12811;DHT22;6470;47.654;7.896;2022-10-18T16:58:15;15.10;99.90
12811;DHT22;6470;47.654;7.896;2022-10-18T17:00:41;17.70;99.90
12811;DHT22;6470;47.654;7.896;2022-10-18T17:03:07;16.80;99.90
12811;DHT22;6470;47.654;7.896;2022-10-18T17:05:33;17.30;99.90
12811;DHT22;6470;47.654;7.896;2022-10-18T17:07:58;18.40;99.90
12811;DHT22;6470;47.654;7.896;2022-10-18T17:10:24;17.30;99.90
12811;DHT22;6470;47.654;7.896;2022-10-18T17:12:51;17.90;99.90
12811;DHT22;6470;47.654;7.896;2022-10-18T17:15:17;17.20;99.90
12811;DHT22;6470;47.654;7.896;2022-10-18T17:20:15;17.70;99.90
12811;DHT22;6470;47.654;7.896;2022-10-18T17:22:42;17.60;99.90
12811;DHT22;6470;47.654;7.896;2022-10-18T17:25:08;16.90;99.90
12811;DHT22;6470;47.654;7.896;2022-10-18T17:27:34;17.50;99.90
12811;DHT22;6470;47.654;7.896;2022-10-18T17:30:00;17.00;99.90
12811;DHT22;6470;47.654;7.896;2022-10-18T17:32:25;17.20;99.90
12811;DHT22;6470;47.654;7.896;2022-10-18T17:34:51;17.40;99.90
12811;DHT22;6470;47.654;7.896;2022-10-18T17:37:16;16.90;99.90
12811;DHT22;6470;47.654;7.896;2022-10-18T17:42:08;16.00;99.90
12811;DHT22;6470;47.654;7.896;2022-10-18T17:44:34;13.70;99.90
12811;DHT22;6470;47.654;7.896;2022-10-18T17:47:00;15.70;99.90
12811;DHT22;6470;47.654;7.896;2022-10-18T17:49:25;16.50;99.90
12811;DHT22;6470;47.654;7.896;2022-10-18T17:51:51;16.30;99.90
12811;DHT22;6470;47.654;7.896;2022-10-18T17:54:17;15.40;99.90
12811;DHT22;6470;47.654;7.896;2022-10-18T17:56:42;16.20;99.90
12811;DHT22;6470;47.654;7.896;2022-10-18T17:59:09;13.30;99.90
12811;DHT22;6470;47.654;7.896;2022-10-18T18:01:35;13.40;99.90
12811;DHT22;6470;47.654;7.896;2022-10-18T18:04:02;16.60;99.90
12811;DHT22;6470;47.654;7.896;2022-10-18T18:06:30;16.30;99.90
12811;DHT22;6470;47.654;7.896;2022-10-18T18:09:00;15.90;99.90
12811;DHT22;6470;47.654;7.896;2022-10-18T18:11:27;15.90;99.90
12811;DHT22;6470;47.654;7.896;2022-10-18T18:13:56;15.90;99.90
12811;DHT22;6470;47.654;7.896;2022-10-18T18:16:25;16.00;99.90
12811;DHT22;6470;47.654;7.896;2022-10-18T18:18:53;16.30;99.90
12811;DHT22;6470;47.654;7.896;2022-10-18T18:21:20;16.10;99.90
12811;DHT22;6470;47.654;7.896;2022-10-18T18:23:47;15.70;99.90
12811;DHT22;6470;47.654;7.896;2022-10-18T18:31:20;16.50;99.90
12811;DHT22;6470;47.654;7.896;2022-10-18T18:36:14;15.60;99.90
12811;DHT22;6470;47.654;7.896;2022-10-18T18:38:40;16.20;99.90
12811;DHT22;6470;47.654;7.896;2022-10-18T18:41:11;15.40;99.90
12811;DHT22;6470;47.654;7.896;2022-10-18T18:43:41;15.50;99.90
12811;DHT22;6470;47.654;7.896;2022-10-18T18:46:07;15.60;99.90
12811;DHT22;6470;47.654;7.896;2022-10-18T18:48:34;15.40;99.90
12811;DHT22;6470;47.654;7.896;2022-10-18T18:51:03;15.90;99.90
12811;DHT22;6470;47.654;7.896;2022-10-18T18:53:29;15.00;99.90
12811;DHT22;6470;47.654;7.896;2022-10-18T18:56:03;15.40;99.90
12811;DHT22;6470;47.654;7.896;2022-10-18T19:00:56;14.80;99.90
12811;DHT22;6470;47.654;7.896;2022-10-18T19:03:22;16.20;99.90
12811;DHT22;6470;47.654;7.896;2022-10-18T19:05:49;11.60;99.90
12811;DHT22;6470;47.654;7.896;2022-10-18T19:08:14;12.00;99.90
12811;DHT22;6470;47.654;7.896;2022-10-18T19:10:40;12.00;99.90
12811;DHT22;6470;47.654;7.896;2022-10-18T19:13:06;15.80;99.90
12811;DHT22;6470;47.654;7.896;2022-10-18T19:15:31;14.90;99.90
12811;DHT22;6470;47.654;7.896;2022-10-18T19:17:58;15.60;99.90
12811;DHT22;6470;47.654;7.896;2022-10-18T19:20:23;15.50;99.90
12811;DHT22;6470;47.654;7.896;2022-10-18T19:22:49;15.40;99.90
12811;DHT22;6470;47.654;7.896;2022-10-18T19:25:15;15.60;99.90
12811;DHT22;6470;47.654;7.896;2022-10-18T19:27:41;15.30;99.90
12811;DHT22;6470;47.654;7.896;2022-10-18T19:30:08;15.80;99.90
12811;DHT22;6470;47.654;7.896;2022-10-18T19:32:34;15.70;99.90
12811;DHT22;6470;47.654;7.896;2022-10-18T19:34:59;15.30;99.90
12811;DHT22;6470;47.654;7.896;2022-10-18T19:37:25;15.30;99.90